createdAt,value
2022-11-06T00:02:40.122Z,101511.47
2022-11-06T00:10:16.496Z,101507.81
2022-11-06T00:17:51.505Z,101505.88
2022-11-06T00:25:26.760Z,101505.72
2022-11-06T00:33:00.374Z,101498.38
2022-11-06T00:40:35.861Z,101504.31
2022-11-06T00:48:09.635Z,101510.63
2022-11-06T00:55:45.448Z,101509.69
2022-11-06T01:03:19.378Z,101500.94
2022-11-06T01:10:54.424Z,101497.38
2022-11-06T01:18:28.130Z,101495.44
2022-11-06T01:26:05.400Z,101488.38
2022-11-06T01:33:39.438Z,101473.28
2022-11-06T01:41:16.367Z,101473.34
2022-11-06T01:48:55.132Z,101463.69
2022-11-06T01:56:30.618Z,101454.69
2022-11-06T02:04:08.832Z,101452.03
2022-11-06T02:11:45.967Z,101438.81
2022-11-06T02:19:41.130Z,101433.59
2022-11-06T02:27:18.499Z,101428.38
2022-11-06T02:34:55.195Z,101427.38
2022-11-06T02:42:32.766Z,101429.06
2022-11-06T02:50:11.174Z,101435.25
2022-11-06T02:57:50.544Z,101417.88
2022-11-06T03:05:31.763Z,101418.03
2022-11-06T03:13:15.867Z,101423.47
2022-11-06T03:20:56.360Z,101419.81
2022-11-06T03:28:35.043Z,101424.97
2022-11-06T03:36:14.931Z,101425.72
2022-11-06T03:43:52.458Z,101412.34
2022-11-06T03:51:31.234Z,101410.56
2022-11-06T03:59:09.281Z,101409.56
2022-11-06T04:06:48.411Z,101411.91
2022-11-06T04:14:27.519Z,101391.44
2022-11-06T04:22:15.911Z,101387.66
2022-11-06T04:30:03.510Z,101386.53
2022-11-06T04:37:44.443Z,101382.81
2022-11-06T04:45:25.880Z,101397.19
2022-11-06T04:53:01.785Z,101390.22
2022-11-06T05:00:37.936Z,101372.63
2022-11-06T05:08:16.354Z,101364.59
2022-11-06T05:15:56.484Z,101365.44
2022-11-06T05:23:30.128Z,101370.28
2022-11-06T05:31:06.076Z,101360.66
2022-11-06T05:38:40.460Z,101373.16
2022-11-06T05:54:09.561Z,101369.28
2022-11-06T06:01:45.000Z,101366.34
2022-11-06T06:09:18.772Z,101372.31
2022-11-06T06:16:53.872Z,101363.31
2022-11-06T06:24:27.712Z,101374.56
2022-11-06T06:32:02.866Z,101385.16
2022-11-06T06:39:36.670Z,101388.75
2022-11-06T06:47:11.915Z,101392.63
2022-11-06T06:54:45.577Z,101387.66
2022-11-06T07:02:21.999Z,101400.41
2022-11-06T07:09:55.841Z,101385.97
2022-11-06T07:17:30.983Z,101397.44
2022-11-06T07:25:05.236Z,101397.63
2022-11-06T07:32:40.308Z,101389.56
2022-11-06T07:40:14.866Z,101388.25
2022-11-06T07:47:49.675Z,101381.59
2022-11-06T07:55:23.792Z,101373.63
2022-11-06T08:02:59.139Z,101370.44
2022-11-06T08:10:32.961Z,101355.13
2022-11-06T08:18:09.166Z,101344.09
2022-11-06T08:25:43.012Z,101360.41
2022-11-06T08:33:19.340Z,101358.88
2022-11-06T08:40:53.991Z,101342.31
2022-11-06T08:48:28.907Z,101325.66
2022-11-06T08:56:03.832Z,101319.78
2022-11-06T09:03:38.825Z,101333.88
2022-11-06T09:11:13.148Z,101329.47
2022-11-06T09:18:48.224Z,101330.00
2022-11-06T09:26:22.204Z,101334.03
2022-11-06T09:33:57.485Z,101339.28
2022-11-06T09:41:37.018Z,101320.63
2022-11-06T09:49:20.436Z,101329.81
2022-11-06T09:57:00.185Z,101327.72
2022-11-06T10:04:43.057Z,101306.81
2022-11-06T10:12:26.664Z,101309.94
2022-11-06T10:20:12.260Z,101300.63
2022-11-06T10:27:58.891Z,101293.66
2022-11-06T10:35:38.623Z,101283.09
2022-11-06T10:43:26.156Z,101275.44
2022-11-06T10:51:13.976Z,101267.38
2022-11-06T10:58:47.813Z,101250.75
2022-11-06T11:06:22.841Z,101239.59
2022-11-06T11:14:24.317Z,101233.94
2022-11-06T11:22:00.524Z,101228.69
2022-11-06T11:29:42.872Z,101224.31
2022-11-06T11:37:26.979Z,101226.41
2022-11-06T11:45:14.773Z,101213.31
2022-11-06T11:52:53.518Z,101197.53
2022-11-06T12:00:29.499Z,101190.31
2022-11-06T12:08:04.933Z,101167.34
2022-11-06T12:15:47.202Z,101159.53
2022-11-06T12:23:29.262Z,101159.50
2022-11-06T12:31:09.011Z,101151.63
2022-11-06T12:38:50.040Z,101149.00
2022-11-06T12:46:40.790Z,101133.97
2022-11-06T12:54:35.240Z,101132.34
2022-11-06T13:02:24.984Z,101129.88
2022-11-06T13:10:21.414Z,101121.00
2022-11-06T13:18:02.377Z,101117.41
2022-11-06T13:25:44.434Z,101103.22
2022-11-06T13:33:24.329Z,101082.69
2022-11-06T13:41:04.052Z,101074.66
2022-11-06T13:48:47.457Z,101074.84
2022-11-06T13:56:47.714Z,101073.22
2022-11-06T14:04:43.192Z,101071.41
2022-11-06T14:12:21.305Z,101057.03
2022-11-06T14:20:05.661Z,101052.59
2022-11-06T14:28:07.196Z,101048.97
2022-11-06T14:35:55.031Z,101044.31
2022-11-06T14:43:33.130Z,101029.88
2022-11-06T14:51:09.178Z,100999.56
2022-11-06T14:58:51.407Z,100998.47
2022-11-06T15:06:45.885Z,101004.56
2022-11-06T15:15:01.559Z,101000.69
2022-11-06T15:22:41.413Z,101003.06
2022-11-06T15:30:18.995Z,101006.38
2022-11-06T15:37:56.320Z,101009.63
2022-11-06T15:45:31.760Z,101000.44
2022-11-06T15:53:24.618Z,100983.28
2022-11-06T16:01:00.583Z,100969.59
2022-11-06T16:08:34.502Z,100957.56
2022-11-06T16:16:33.155Z,100950.22
2022-11-06T16:24:14.744Z,100933.03
2022-11-06T16:32:00.028Z,100932.84
2022-11-06T16:39:51.323Z,100933.28
2022-11-06T16:47:26.449Z,100926.69
2022-11-06T16:55:03.003Z,100938.78
2022-11-06T17:02:48.270Z,100930.47
2022-11-06T17:10:37.292Z,100932.78
2022-11-06T17:18:16.834Z,100929.13
2022-11-06T17:25:53.518Z,100930.75
2022-11-06T17:33:28.594Z,100932.41
2022-11-06T17:41:02.231Z,100935.97
2022-11-06T17:48:37.611Z,100934.94
2022-11-06T17:56:11.429Z,100921.47
2022-11-06T18:03:46.819Z,100919.56
2022-11-06T18:11:20.573Z,100918.47
2022-11-06T18:18:56.343Z,100903.25
2022-11-06T18:26:30.884Z,100911.13
2022-11-06T18:34:06.833Z,100903.94
2022-11-06T18:41:40.519Z,100896.81
2022-11-06T18:49:16.126Z,100898.50
2022-11-06T18:56:49.957Z,100893.03
2022-11-06T19:04:27.891Z,100889.28
2022-11-06T19:12:01.782Z,100898.94
2022-11-06T19:19:37.211Z,100887.97
2022-11-06T19:27:11.345Z,100884.25
2022-11-06T19:34:46.977Z,100892.97
2022-11-06T19:42:20.680Z,100885.69
2022-11-06T19:49:55.800Z,100884.72
2022-11-06T19:57:30.544Z,100886.47
2022-11-06T20:05:06.618Z,100877.47
2022-11-06T20:12:40.336Z,100878.41
2022-11-06T20:20:15.567Z,100862.22
2022-11-06T20:27:49.700Z,100860.09
2022-11-06T20:35:24.918Z,100849.38
2022-11-06T20:42:58.658Z,100849.34
2022-11-06T20:50:34.149Z,100840.41
2022-11-06T20:58:07.820Z,100820.09
2022-11-06T21:05:42.935Z,100811.22
2022-11-06T21:13:16.961Z,100800.53
2022-11-06T21:20:52.140Z,100787.19
2022-11-06T21:28:26.241Z,100784.47
2022-11-06T21:36:09.672Z,100785.41
2022-11-06T21:43:44.053Z,100776.47
2022-11-06T21:51:21.716Z,100773.00
2022-11-06T21:58:57.704Z,100774.81
2022-11-06T22:06:32.980Z,100754.41
2022-11-06T22:14:09.249Z,100742.09
2022-11-06T22:21:44.497Z,100746.63
2022-11-06T22:29:18.973Z,100740.41
2022-11-06T22:36:54.086Z,100738.69
2022-11-06T22:44:27.926Z,100745.81
2022-11-06T22:52:03.242Z,100742.31
2022-11-06T22:59:36.995Z,100754.72
2022-11-06T23:07:12.258Z,100761.78
2022-11-06T23:14:46.253Z,100765.38
2022-11-06T23:22:39.685Z,100763.59
2022-11-06T23:30:15.144Z,100749.22
2022-11-06T23:37:50.109Z,100744.94
2022-11-06T23:45:41.611Z,100744.16
2022-11-06T23:53:18.064Z,100745.06
